Time;durP1;ratioP1;P1;durP2;ratioP2;P2;SDS_P1;SDS_P2;PMS_P1;PMS_P2;Temp;Humidity;BMP_temperature;BMP_pressure;BME280_temperature;BME280_humidity;BME280_pressure;Samples;Min_cycle;Max_cycle;Signal;HPM_P1;HPM_P2
2024/03/12 05:32:19;;;;;;;0.10;0.10;;;9.30;86.30;;;;;;5006276;24;20057;-74
2024/03/12 05:34:48;;;;;;;0.10;0.10;;;9.40;86.20;;;;;;4863582;29;20086;-75
2024/03/12 05:37:29;;;;;;;0.10;0.10;;;9.50;86.30;;;;;;4863823;29;20037;-75
2024/03/12 05:40:13;;;;;;;0.10;0.10;;;9.50;86.40;;;;;;4864063;29;20042;-75
2024/03/12 05:48:09;;;;;;;0.17;0.17;;;9.60;86.40;;;;;;4863179;29;20055;-75
2024/03/12 05:50:38;;;;;;;0.10;0.10;;;9.60;86.50;;;;;;4847189;29;20127;-75
2024/03/12 05:53:04;;;;;;;0.10;0.10;;;9.60;86.60;;;;;;4863267;29;20028;-75
2024/03/12 05:55:30;;;;;;;0.10;0.10;;;9.70;86.60;;;;;;4862717;29;20406;-75
2024/03/12 05:57:56;;;;;;;0.10;0.10;;;9.70;86.90;;;;;;4863259;29;20029;-77
2024/03/12 06:00:21;;;;;;;0.10;0.10;;;9.70;86.90;;;;;;4862987;29;20025;-75
2024/03/12 06:02:49;;;;;;;0.10;0.10;;;9.70;86.90;;;;;;4862996;29;20034;-74
2024/03/12 06:05:16;;;;;;;0.10;0.10;;;9.80;87.10;;;;;;4863698;29;20084;-74
2024/03/12 06:07:49;;;;;;;0.10;0.10;;;9.80;87.20;;;;;;4863452;29;20028;-74
2024/03/12 06:10:16;;;;;;;0.10;0.10;;;9.90;87.20;;;;;;4863744;29;20812;-76
2024/03/12 06:12:42;;;;;;;0.10;0.10;;;9.90;87.20;;;;;;4863635;29;20029;-75
2024/03/12 06:15:08;;;;;;;0.10;0.10;;;9.90;87.30;;;;;;4846367;29;20066;-75
2024/03/12 06:17:34;;;;;;;0.10;0.10;;;10.00;87.20;;;;;;4847143;29;20048;-77
2024/03/12 06:20:00;;;;;;;0.10;0.10;;;10.00;87.20;;;;;;4862780;29;20073;-79
2024/03/12 06:22:26;;;;;;;0.10;0.10;;;10.00;87.10;;;;;;4843677;29;20034;-78
2024/03/12 06:24:52;;;;;;;0.10;0.10;;;10.00;87.10;;;;;;4852315;29;20062;-76
2024/03/12 06:27:18;;;;;;;0.10;0.10;;;10.10;87.20;;;;;;4863103;29;20025;-76
2024/03/12 06:29:49;;;;;;;0.10;0.10;;;10.10;87.10;;;;;;4862344;29;20413;-76
2024/03/12 06:32:18;;;;;;;0.10;0.10;;;10.00;87.30;;;;;;4861590;29;20042;-77
2024/03/12 06:34:44;;;;;;;0.10;0.10;;;10.10;87.30;;;;;;4845600;29;20034;-75
2024/03/12 06:37:11;;;;;;;0.10;0.10;;;10.10;87.50;;;;;;4862969;29;20017;-75
2024/03/12 06:39:41;;;;;;;0.10;0.10;;;10.10;87.50;;;;;;4862955;29;20025;-75
2024/03/12 06:42:07;;;;;;;0.10;0.10;;;10.10;87.50;;;;;;4863082;29;20025;-75
2024/03/12 06:44:40;;;;;;;0.10;0.10;;;10.10;87.50;;;;;;4862616;29;20447;-76
2024/03/12 06:47:06;;;;;;;0.10;0.10;;;10.20;87.50;;;;;;4862310;29;20050;-74
2024/03/12 06:49:33;;;;;;;0.10;0.10;;;10.20;87.60;;;;;;4846349;29;20144;-74
2024/03/12 06:51:59;;;;;;;0.10;0.10;;;10.20;87.90;;;;;;4844659;29;20026;-75
2024/03/12 06:54:26;;;;;;;0.10;0.10;;;10.20;87.80;;;;;;4856150;29;20037;-74
2024/03/12 06:56:53;;;;;;;0.10;0.10;;;10.20;87.90;;;;;;4863184;29;20021;-74
2024/03/12 06:59:21;;;;;;;0.10;0.10;;;10.20;87.90;;;;;;4861351;29;20086;-75
2024/03/12 07:01:53;;;;;;;0.10;0.10;;;10.30;87.90;;;;;;4863076;29;20112;-75
2024/03/12 07:04:23;;;;;;;0.10;0.10;;;10.30;87.90;;;;;;4862892;29;20116;-75
2024/03/12 07:06:51;;;;;;;0.10;0.10;;;10.30;87.80;;;;;;4863254;29;20021;-75
2024/03/12 07:09:26;;;;;;;0.10;0.10;;;10.30;87.90;;;;;;4862659;29;20026;-74
2024/03/12 07:11:54;;;;;;;0.10;0.10;;;10.30;87.90;;;;;;4862583;29;20090;-75
2024/03/12 07:14:27;;;;;;;0.00;0.00;;;10.40;87.80;;;;;;4862462;29;20037;-74
2024/03/12 07:16:56;;;;;;;0.10;0.10;;;10.40;87.70;;;;;;4862946;29;20455;-75
2024/03/12 07:19:22;;;;;;;0.10;0.10;;;10.50;87.80;;;;;;4863089;29;20490;-74
2024/03/12 07:21:49;;;;;;;0.10;0.10;;;10.50;87.80;;;;;;4862980;29;20050;-75
2024/03/12 07:24:15;;;;;;;0.10;0.10;;;10.50;87.80;;;;;;4845336;29;20038;-75
2024/03/12 07:26:45;;;;;;;0.10;0.10;;;10.50;87.90;;;;;;4846286;29;20486;-75
2024/03/12 07:29:11;;;;;;;0.10;0.10;;;10.60;88.10;;;;;;4861977;29;20026;-74
2024/03/12 07:31:37;;;;;;;0.10;0.10;;;10.60;88.00;;;;;;4843264;29;20053;-75
2024/03/12 07:34:05;;;;;;;0.10;0.10;;;10.60;88.10;;;;;;4844353;29;20086;-74
2024/03/12 07:36:32;;;;;;;0.10;0.10;;;10.70;88.10;;;;;;4843943;29;20037;-75
2024/03/12 07:38:59;;;;;;;0.10;0.10;;;10.70;88.40;;;;;;4844304;29;20025;-75
2024/03/12 07:41:25;;;;;;;0.10;0.10;;;10.70;88.50;;;;;;4844573;29;20459;-75
2024/03/12 07:43:51;;;;;;;0.10;0.10;;;10.70;88.60;;;;;;4844608;29;20033;-75
2024/03/12 07:46:19;;;;;;;0.10;0.10;;;10.60;88.80;;;;;;4846855;29;20494;-74
2024/03/12 07:48:45;;;;;;;0.10;0.10;;;10.70;88.90;;;;;;4847634;29;20037;-74
2024/03/12 07:51:10;;;;;;;0.10;0.10;;;10.70;88.90;;;;;;4847674;29;20033;-75
2024/03/12 07:53:36;;;;;;;0.10;0.10;;;10.80;88.90;;;;;;4846497;29;20509;-75
2024/03/12 07:56:06;;;;;;;0.10;0.10;;;10.80;88.90;;;;;;4847128;29;20026;-74
2024/03/12 07:58:35;;;;;;;0.10;0.10;;;10.70;89.00;;;;;;4847609;29;20030;-75
2024/03/12 08:01:01;;;;;;;0.10;0.10;;;10.80;89.00;;;;;;4847229;29;20133;-75
2024/03/12 08:03:27;;;;;;;0.10;0.10;;;10.80;89.10;;;;;;4847206;29;20038;-75
2024/03/12 08:05:53;;;;;;;0.10;0.10;;;10.80;89.30;;;;;;4847473;29;20433;-75
2024/03/12 08:08:19;;;;;;;0.10;0.10;;;10.80;89.30;;;;;;4846344;29;20026;-74
2024/03/12 08:10:44;;;;;;;0.10;0.10;;;10.90;89.20;;;;;;4846848;29;20026;-74
2024/03/12 08:13:10;;;;;;;0.10;0.10;;;10.90;89.10;;;;;;4828923;29;20031;-75
2024/03/12 08:15:37;;;;;;;0.10;0.10;;;11.00;89.00;;;;;;4827878;29;20083;-75
2024/03/12 08:18:04;;;;;;;0.10;0.10;;;11.00;89.00;;;;;;4828689;29;20469;-74
2024/03/12 08:20:31;;;;;;;0.10;0.10;;;11.00;89.10;;;;;;4841707;29;20426;-75
2024/03/12 08:22:59;;;;;;;0.10;0.10;;;11.00;89.20;;;;;;4845614;29;20030;-75
2024/03/12 08:25:24;;;;;;;0.10;0.10;;;11.10;89.20;;;;;;4845875;29;20033;-75
2024/03/12 08:27:50;;;;;;;0.10;0.10;;;11.20;89.10;;;;;;4846729;29;20086;-75
2024/03/12 08:30:16;;;;;;;0.10;0.10;;;11.20;89.20;;;;;;4847895;29;20037;-75
2024/03/12 08:32:42;;;;;;;0.13;0.13;;;11.20;89.20;;;;;;4865291;29;20037;-75
2024/03/12 08:35:11;;;;;;;0.10;0.10;;;11.30;89.10;;;;;;4865295;29;20034;-75
2024/03/12 08:37:37;;;;;;;0.10;0.10;;;11.40;89.10;;;;;;4865267;29;20065;-74
2024/03/12 08:40:07;;;;;;;0.10;0.10;;;11.50;88.90;;;;;;4864876;29;20024;-74
2024/03/12 08:42:35;;;;;;;0.10;0.10;;;11.50;88.80;;;;;;4848112;29;20030;-75
2024/03/12 08:45:01;;;;;;;0.10;0.10;;;11.60;88.80;;;;;;4864677;29;20040;-75
2024/03/12 08:47:27;;;;;;;0.10;0.10;;;11.60;88.80;;;;;;4848929;29;20510;-75
2024/03/12 08:49:53;;;;;;;0.10;0.10;;;11.70;88.80;;;;;;4848568;29;20113;-75
2024/03/12 08:52:18;;;;;;;0.10;0.10;;;11.70;88.70;;;;;;4847671;29;20038;-74
2024/03/12 08:54:44;;;;;;;0.10;0.10;;;11.80;88.60;;;;;;4863180;29;20029;-75
2024/03/12 08:57:10;;;;;;;0.10;0.10;;;11.80;88.50;;;;;;4865120;29;20057;-75
2024/03/12 08:59:35;;;;;;;0.10;0.10;;;11.90;88.50;;;;;;4864191;29;20041;-75
2024/03/12 09:02:02;;;;;;;0.10;0.10;;;12.00;88.40;;;;;;4848489;29;20040;-74
2024/03/12 09:04:30;;;;;;;0.10;0.10;;;12.00;88.30;;;;;;4864019;29;20464;-75
2024/03/12 09:06:57;;;;;;;0.10;0.10;;;12.10;88.20;;;;;;4864956;29;20026;-74
2024/03/12 09:09:23;;;;;;;0.10;0.10;;;12.10;88.20;;;;;;4864777;29;20021;-74
2024/03/12 09:11:49;;;;;;;0.10;0.10;;;12.20;88.10;;;;;;4863666;29;20137;-74
2024/03/12 09:14:15;;;;;;;0.10;0.10;;;12.20;88.00;;;;;;4847998;29;20025;-75
2024/03/12 09:16:41;;;;;;;0.10;0.10;;;12.20;88.10;;;;;;4864746;29;20037;-75
2024/03/12 09:19:08;;;;;;;0.10;0.10;;;12.30;88.00;;;;;;4864485;29;20030;-75
2024/03/12 09:21:34;;;;;;;0.10;0.10;;;12.50;87.90;;;;;;4862789;29;20036;-75
2024/03/12 09:24:00;;;;;;;0.20;0.20;;;12.70;87.60;;;;;;4864476;29;20021;-75
2024/03/12 09:26:26;;;;;;;0.15;0.15;;;12.80;87.30;;;;;;4863848;29;20154;-75
2024/03/12 09:28:51;;;;;;;0.10;0.10;;;12.90;87.00;;;;;;4847846;29;20040;-75
2024/03/12 09:31:18;;;;;;;0.10;0.10;;;13.00;86.60;;;;;;4863913;29;20045;-74
2024/03/12 09:33:47;;;;;;;0.10;0.10;;;13.20;86.80;;;;;;4847331;29;20021;-74
2024/03/12 09:36:14;;;;;;;0.10;0.10;;;13.20;86.60;;;;;;4864327;29;20054;-75
2024/03/12 09:38:40;;;;;;;0.10;0.10;;;13.20;86.40;;;;;;4863610;29;20062;-75
2024/03/12 09:41:09;;;;;;;0.20;0.20;;;13.20;86.40;;;;;;4864280;29;20033;-75
2024/03/12 09:43:37;;;;;;;0.10;0.10;;;13.30;86.30;;;;;;4864140;29;20442;-74
2024/03/12 09:46:03;;;;;;;0.10;0.10;;;13.40;86.30;;;;;;4863432;29;20029;-75
2024/03/12 09:48:30;;;;;;;0.10;0.10;;;13.60;85.90;;;;;;4863067;29;20765;-75
2024/03/12 09:50:59;;;;;;;0.10;0.10;;;13.60;85.60;;;;;;4846691;29;20064;-75
2024/03/12 09:53:26;;;;;;;0.10;0.10;;;13.60;85.80;;;;;;4864048;29;20518;-75
2024/03/12 09:55:53;;;;;;;0.10;0.10;;;13.40;85.90;;;;;;4847628;29;20105;-75
2024/03/12 09:58:19;;;;;;;0.10;0.10;;;13.40;86.10;;;;;;4863668;29;20021;-75
2024/03/12 10:00:45;;;;;;;0.10;0.10;;;13.30;86.20;;;;;;4863481;29;20038;-75
2024/03/12 10:03:10;;;;;;;0.10;0.10;;;13.20;86.40;;;;;;4863871;29;20073;-74
2024/03/12 10:05:40;;;;;;;0.10;0.10;;;13.20;86.40;;;;;;4863133;29;20045;-75
2024/03/12 10:08:16;;;;;;;0.40;0.40;;;13.30;86.60;;;;;;4863743;29;20026;-75
2024/03/12 10:10:44;;;;;;;0.45;0.45;;;13.90;86.00;;;;;;4863632;29;20025;-76
2024/03/12 10:13:14;;;;;;;0.10;0.10;;;14.60;85.20;;;;;;4863093;29;20032;-75
2024/03/12 10:15:59;;;;;;;0.17;0.17;;;14.80;83.90;;;;;;4863215;29;20041;-76
2024/03/12 10:18:26;;;;;;;0.10;0.10;;;15.00;83.10;;;;;;4863772;29;20108;-75
2024/03/12 10:20:57;;;;;;;0.10;0.10;;;15.10;82.90;;;;;;4846365;29;20081;-76
2024/03/12 10:23:28;;;;;;;0.10;0.10;;;15.00;82.80;;;;;;4844016;29;20064;-75
2024/03/12 10:26:10;;;;;;;0.10;0.10;;;15.00;82.10;;;;;;4845000;29;20038;-75
2024/03/12 10:28:39;;;;;;;0.10;0.10;;;14.90;82.30;;;;;;4843599;29;20037;-76
2024/03/12 10:31:08;;;;;;;0.10;0.10;;;15.00;82.30;;;;;;4847439;29;20053;-75
2024/03/12 10:33:36;;;;;;;0.20;0.20;;;15.10;82.00;;;;;;4863526;29;20017;-75
2024/03/12 10:36:04;;;;;;;0.20;0.20;;;15.50;81.20;;;;;;4872592;29;20636;-75
2024/03/12 10:38:32;;;;;;;0.20;0.20;;;15.80;80.40;;;;;;4863443;29;20073;-76
2024/03/12 10:41:19;;;;;;;0.20;0.20;;;16.00;79.40;;;;;;4862968;29;20688;-75
2024/03/12 10:43:47;;;;;;;0.20;0.20;;;16.20;78.90;;;;;;4846572;29;20522;-76
2024/03/12 10:46:17;;;;;;;0.10;0.10;;;16.30;78.50;;;;;;4862502;29;20049;-76
2024/03/12 10:48:45;;;;;;;0.20;0.20;;;16.40;77.80;;;;;;4863297;29;20109;-75
2024/03/12 10:51:12;;;;;;;0.10;0.10;;;16.50;77.70;;;;;;4861816;29;20046;-75
2024/03/12 10:53:42;;;;;;;0.10;0.10;;;16.60;77.30;;;;;;4862798;29;20528;-76
2024/03/12 10:56:09;;;;;;;0.10;0.10;;;16.70;77.00;;;;;;4863155;29;20042;-75
2024/03/12 10:58:36;;;;;;;0.10;0.10;;;16.70;77.10;;;;;;4862673;29;20091;-76
2024/03/12 11:01:02;;;;;;;0.10;0.10;;;16.80;75.90;;;;;;4863147;29;20037;-75
2024/03/12 11:03:28;;;;;;;0.10;0.10;;;16.90;76.50;;;;;;4862553;29;20037;-76
2024/03/12 11:05:54;;;;;;;0.10;0.10;;;16.80;75.70;;;;;;4875681;29;20065;-75
2024/03/12 11:08:21;;;;;;;0.10;0.10;;;16.90;74.90;;;;;;4862401;29;20018;-75
2024/03/12 11:10:48;;;;;;;0.10;0.10;;;16.80;74.80;;;;;;4862911;29;20082;-75
2024/03/12 11:13:16;;;;;;;0.10;0.10;;;16.70;74.80;;;;;;4845587;29;20036;-76
2024/03/12 11:15:42;;;;;;;0.10;0.10;;;16.50;74.40;;;;;;4862878;29;20034;-75
2024/03/12 11:18:09;;;;;;;0.10;0.10;;;16.30;74.80;;;;;;4845963;29;20033;-76
2024/03/12 11:20:44;;;;;;;0.10;0.10;;;16.20;74.60;;;;;;4849413;29;20038;-75
2024/03/12 11:23:10;;;;;;;0.10;0.10;;;16.10;74.60;;;;;;4866509;29;20033;-75
2024/03/12 11:25:38;;;;;;;0.10;0.10;;;16.10;74.90;;;;;;4866173;29;20512;-76
2024/03/12 11:28:22;;;;;;;0.10;0.10;;;16.10;75.20;;;;;;4866459;29;20558;-76
2024/03/12 11:30:48;;;;;;;;;;;16.20;75.30;;;;;;4847113;29;20065;-76
2024/03/12 11:33:49;;;;;;;0.10;0.10;;;16.20;73.80;;;;;;4847999;29;19913;-75
2024/03/12 11:36:40;;;;;;;0.10;0.10;;;16.10;74.60;;;;;;4847660;29;20085;-76
2024/03/12 11:39:12;;;;;;;0.10;0.10;;;16.20;74.50;;;;;;4847502;29;20102;-75
2024/03/12 11:42:10;;;;;;;0.10;0.10;;;16.20;74.50;;;;;;4847802;29;20513;-75
2024/03/12 11:44:53;;;;;;;0.10;0.10;;;16.30;74.60;;;;;;4847310;29;20041;-75
2024/03/12 11:47:34;;;;;;;0.10;0.10;;;16.50;74.70;;;;;;4847279;29;20562;-76
2024/03/12 11:50:01;;;;;;;0.10;0.10;;;16.60;74.40;;;;;;4847831;29;20041;-75
2024/03/12 11:52:30;;;;;;;0.10;0.10;;;16.50;73.90;;;;;;4846532;29;20034;-75
2024/03/12 11:54:56;;;;;;;0.10;0.10;;;16.30;74.10;;;;;;4847321;29;20037;-76
2024/03/12 11:57:26;;;;;;;0.10;0.10;;;16.20;74.80;;;;;;4846099;29;20038;-75
2024/03/12 11:59:54;;;;;;;0.10;0.10;;;16.10;74.20;;;;;;4847152;29;20034;-75
2024/03/12 12:02:20;;;;;;;0.10;0.10;;;15.80;74.40;;;;;;4847473;29;20030;-75
2024/03/12 12:04:53;;;;;;;0.10;0.10;;;15.60;74.20;;;;;;4846763;29;20034;-75
2024/03/12 12:07:23;;;;;;;0.10;0.10;;;15.50;74.90;;;;;;4847548;29;20026;-75
2024/03/12 12:09:50;;;;;;;0.10;0.10;;;15.60;75.30;;;;;;4847507;29;20036;-76
2024/03/12 12:12:17;;;;;;;0.10;0.10;;;15.60;74.90;;;;;;4846910;29;20098;-75
2024/03/12 12:14:44;;;;;;;0.10;0.10;;;15.90;75.10;;;;;;4847267;29;20041;-76
2024/03/12 12:17:19;;;;;;;0.10;0.10;;;16.30;74.00;;;;;;4844854;29;20068;-75
2024/03/12 12:19:45;;;;;;;0.10;0.10;;;16.30;72.80;;;;;;4846255;29;20407;-75
2024/03/12 12:22:11;;;;;;;0.10;0.10;;;16.30;72.90;;;;;;4847085;29;20379;-75
2024/03/12 12:24:40;;;;;;;0.10;0.10;;;16.20;73.10;;;;;;4846609;29;20090;-75
2024/03/12 12:27:06;;;;;;;0.10;0.10;;;16.20;73.00;;;;;;4847248;29;20505;-76
2024/03/12 12:29:33;;;;;;;0.10;0.10;;;16.10;72.80;;;;;;4860098;29;20026;-76
2024/03/12 12:32:00;;;;;;;0.10;0.10;;;16.00;73.00;;;;;;4860508;29;20042;-75
2024/03/12 12:34:28;;;;;;;0.10;0.10;;;16.10;73.70;;;;;;4865636;29;20014;-75
2024/03/12 12:36:55;;;;;;;0.10;0.10;;;16.10;73.10;;;;;;4876952;29;20033;-76
2024/03/12 12:39:21;;;;;;;0.10;0.10;;;16.30;72.80;;;;;;4848515;29;20022;-76
2024/03/12 12:41:48;;;;;;;0.10;0.10;;;16.60;73.00;;;;;;4865309;29;20413;-76
2024/03/12 12:44:21;;;;;;;0.10;0.10;;;16.80;71.90;;;;;;4847862;29;20512;-75
2024/03/12 12:46:54;;;;;;;0.10;0.10;;;17.00;71.00;;;;;;4865123;29;20455;-75
2024/03/12 12:49:22;;;;;;;0.10;0.10;;;17.20;70.60;;;;;;4847879;29;20034;-76
2024/03/12 12:51:47;;;;;;;0.15;0.15;;;17.30;69.90;;;;;;4848779;29;20029;-75
2024/03/12 12:54:15;;;;;;;0.10;0.10;;;17.50;69.90;;;;;;4865153;29;20402;-75
2024/03/12 12:56:49;;;;;;;0.10;0.10;;;17.50;69.70;;;;;;4864332;29;20030;-76
2024/03/12 12:59:23;;;;;;;0.10;0.10;;;17.50;70.10;;;;;;4865082;29;20060;-75
2024/03/12 13:01:48;;;;;;;0.10;0.10;;;17.40;69.50;;;;;;4864219;29;20574;-76
2024/03/12 13:04:26;;;;;;;0.10;0.10;;;17.30;69.70;;;;;;4864931;29;20056;-75
2024/03/12 13:06:54;;;;;;;0.10;0.10;;;17.20;69.00;;;;;;4864578;29;20033;-75
2024/03/12 13:09:32;;;;;;;0.10;0.10;;;17.30;69.50;;;;;;4870115;29;20033;-76
2024/03/12 13:11:59;;;;;;;0.10;0.10;;;17.30;69.80;;;;;;4847948;29;20033;-76
2024/03/12 13:14:28;;;;;;;0.10;0.10;;;17.40;69.80;;;;;;4847868;29;20033;-75
2024/03/12 13:16:54;;;;;;;0.10;0.10;;;17.50;69.90;;;;;;4864044;29;20029;-75
2024/03/12 13:19:20;;;;;;;0.10;0.10;;;17.50;69.40;;;;;;4864713;29;20041;-76
2024/03/12 13:21:45;;;;;;;0.10;0.10;;;17.50;69.60;;;;;;4864051;29;20058;-76
2024/03/12 13:24:11;;;;;;;0.10;0.10;;;17.60;69.30;;;;;;4864625;29;20101;-76
2024/03/12 13:26:37;;;;;;;0.10;0.10;;;17.70;69.60;;;;;;4864388;29;20097;-76
2024/03/12 13:29:05;;;;;;;0.10;0.10;;;17.80;69.10;;;;;;4863877;29;20399;-76
2024/03/12 13:31:31;;;;;;;0.10;0.10;;;17.80;68.20;;;;;;4864212;29;20105;-75
2024/03/12 13:33:57;;;;;;;0.10;0.10;;;17.60;68.20;;;;;;4864335;29;20791;-75
2024/03/12 13:36:25;;;;;;;0.10;0.10;;;17.50;69.10;;;;;;4864019;29;20029;-75
2024/03/12 13:38:52;;;;;;;0.08;0.08;;;17.30;68.80;;;;;;4864200;29;20081;-75
2024/03/12 13:41:18;;;;;;;0.10;0.10;;;17.00;69.40;;;;;;4843596;29;20061;-75
2024/03/12 13:43:44;;;;;;;0.10;0.10;;;16.80;69.90;;;;;;4845706;29;20064;-75
2024/03/12 13:46:10;;;;;;;0.10;0.10;;;16.80;70.80;;;;;;4845518;29;20038;-75
2024/03/12 13:48:40;;;;;;;0.10;0.10;;;16.80;70.70;;;;;;4844520;29;20023;-76
2024/03/12 13:51:10;;;;;;;0.10;0.10;;;16.90;71.00;;;;;;4863680;29;20041;-76
2024/03/12 13:53:38;;;;;;;0.10;0.10;;;17.00;71.00;;;;;;4863753;29;20115;-75
2024/03/12 13:56:05;;;;;;;0.10;0.10;;;17.00;71.20;;;;;;4864417;29;20033;-75
2024/03/12 13:58:34;;;;;;;0.10;0.10;;;17.00;71.20;;;;;;4862805;29;20034;-75
2024/03/12 14:00:59;;;;;;;0.10;0.10;;;17.00;71.20;;;;;;4847600;29;20161;-75
2024/03/12 14:03:30;;;;;;;0.10;0.10;;;17.00;70.70;;;;;;4863715;29;20065;-75
2024/03/12 14:05:57;;;;;;;0.10;0.10;;;17.00;70.80;;;;;;4863314;29;20034;-75
2024/03/12 14:08:23;;;;;;;0.10;0.10;;;17.10;71.00;;;;;;4863879;29;20439;-76
2024/03/12 14:10:51;;;;;;;0.00;0.00;;;17.00;71.30;;;;;;4847052;29;20120;-75
2024/03/12 14:13:18;;;;;;;0.00;0.00;;;16.90;71.60;;;;;;4863507;29;20826;-75
2024/03/12 14:15:45;;;;;;;0.00;0.00;;;16.80;72.70;;;;;;4843612;29;20029;-75
2024/03/12 14:18:11;;;;;;;0.10;0.10;;;16.80;73.10;;;;;;4845013;29;20042;-75
2024/03/12 14:20:37;;;;;;;0.10;0.10;;;16.60;73.40;;;;;;4845346;29;20494;-76
2024/03/12 14:23:04;;;;;;;0.05;0.05;;;16.60;74.20;;;;;;4846902;29;20129;-75
2024/03/12 14:25:29;;;;;;;0.00;0.00;;;16.40;74.90;;;;;;4863439;29;20090;-75
2024/03/12 14:27:55;;;;;;;0.10;0.10;;;16.40;74.90;;;;;;4862952;29;20025;-75
2024/03/12 14:30:22;;;;;;;0.10;0.10;;;16.30;75.50;;;;;;4846993;29;20549;-76
2024/03/12 14:32:49;;;;;;;0.10;0.10;;;16.30;76.00;;;;;;4845439;29;20045;-76
2024/03/12 14:35:15;;;;;;;0.10;0.10;;;16.40;76.40;;;;;;4863633;29;20030;-75
2024/03/12 14:37:41;;;;;;;0.10;0.10;;;16.50;77.20;;;;;;4863344;29;20062;-76
2024/03/12 14:40:08;;;;;;;0.10;0.10;;;16.70;77.30;;;;;;4845693;29;20041;-76
2024/03/12 14:42:41;;;;;;;0.10;0.10;;;16.90;77.50;;;;;;4863504;29;20036;-75
2024/03/12 14:45:07;;;;;;;0.10;0.10;;;17.00;77.00;;;;;;4846909;29;20041;-76
2024/03/12 14:47:36;;;;;;;0.10;0.10;;;17.00;76.20;;;;;;4846064;29;20078;-76
2024/03/12 14:50:02;;;;;;;0.10;0.10;;;17.00;75.90;;;;;;4863248;29;20025;-76
2024/03/12 14:52:28;;;;;;;0.00;0.00;;;17.10;76.00;;;;;;4845306;29;20033;-76
2024/03/12 14:54:53;;;;;;;0.10;0.10;;;16.80;75.90;;;;;;4863294;29;20041;-75
2024/03/12 14:57:19;;;;;;;0.00;0.00;;;16.60;76.40;;;;;;4862820;29;20033;-76
2024/03/12 14:59:45;;;;;;;0.00;0.00;;;16.50;76.40;;;;;;4862896;29;20059;-75
2024/03/12 15:02:14;;;;;;;0.05;0.05;;;16.40;76.90;;;;;;4862272;29;20064;-75
2024/03/12 15:04:41;;;;;;;0.10;0.10;;;16.20;76.80;;;;;;4845602;29;20037;-74
2024/03/12 15:07:09;;;;;;;0.03;0.03;;;15.90;76.70;;;;;;4846595;29;20026;-75
2024/03/12 15:09:36;;;;;;;0.10;0.10;;;15.80;77.00;;;;;;4862642;29;20532;-74
2024/03/12 15:12:04;;;;;;;0.10;0.10;;;15.80;77.30;;;;;;4863248;29;20033;-74
2024/03/12 15:14:30;;;;;;;0.00;0.00;;;15.80;77.30;;;;;;4862344;29;20042;-74
2024/03/12 15:16:56;;;;;;;0.10;0.10;;;15.80;77.10;;;;;;4834941;29;20128;-74
2024/03/12 15:19:22;;;;;;;0.08;0.08;;;15.80;77.50;;;;;;4828326;29;20536;-74
2024/03/12 15:21:48;;;;;;;0.10;0.10;;;15.80;77.40;;;;;;4843612;29;20041;-75
2024/03/12 15:24:13;;;;;;;0.10;0.10;;;16.00;77.50;;;;;;4844600;29;20033;-75
2024/03/12 15:26:39;;;;;;;0.08;0.08;;;16.00;77.20;;;;;;4852084;29;20057;-74
2024/03/12 15:29:04;;;;;;;0.10;0.10;;;16.10;77.00;;;;;;4844580;29;20539;-74
2024/03/12 15:31:30;;;;;;;0.10;0.10;;;16.20;76.60;;;;;;4825071;29;20115;-74
2024/03/12 15:33:57;;;;;;;0.10;0.10;;;16.20;77.00;;;;;;4858637;29;20085;-75
2024/03/12 15:36:23;;;;;;;0.10;0.10;;;16.20;76.80;;;;;;4844085;29;20053;-75
2024/03/12 15:38:49;;;;;;;0.10;0.10;;;16.10;76.80;;;;;;4844369;29;20022;-74
2024/03/12 15:41:15;;;;;;;0.10;0.10;;;16.10;76.70;;;;;;4843821;29;20486;-75
2024/03/12 15:43:41;;;;;;;0.10;0.10;;;16.10;76.40;;;;;;4844164;29;20048;-74
2024/03/12 15:46:06;;;;;;;0.10;0.10;;;16.20;76.70;;;;;;4844432;29;20045;-74
2024/03/12 15:48:32;;;;;;;0.10;0.10;;;16.30;76.60;;;;;;4843636;29;20087;-75
2024/03/12 15:50:59;;;;;;;0.10;0.10;;;16.20;76.20;;;;;;4844495;29;20034;-74
2024/03/12 15:53:25;;;;;;;0.10;0.10;;;16.10;76.30;;;;;;4842665;29;20054;-74
2024/03/12 15:55:51;;;;;;;0.10;0.10;;;16.10;76.20;;;;;;4843874;29;20083;-74
2024/03/12 15:58:16;;;;;;;0.05;0.05;;;16.10;76.50;;;;;;4843724;29;20037;-74
2024/03/12 16:00:42;;;;;;;0.10;0.10;;;16.00;76.20;;;;;;4844633;29;20029;-74
2024/03/12 16:03:10;;;;;;;0.10;0.10;;;16.10;75.70;;;;;;4843433;29;20042;-74
2024/03/12 16:05:36;;;;;;;0.10;0.10;;;16.10;75.30;;;;;;4846609;29;20049;-74
2024/03/12 16:08:06;;;;;;;0.10;0.10;;;16.00;75.20;;;;;;4847059;29;20026;-74
2024/03/12 16:10:33;;;;;;;0.10;0.10;;;16.00;75.20;;;;;;4847489;29;20025;-75
2024/03/12 16:12:59;;;;;;;0.10;0.10;;;16.00;75.20;;;;;;4846766;29;20030;-74
2024/03/12 16:15:26;;;;;;;0.10;0.10;;;16.00;75.50;;;;;;4847169;29;20022;-74
2024/03/12 16:17:51;;;;;;;0.10;0.10;;;15.90;75.20;;;;;;4844826;29;20068;-76
2024/03/12 16:20:19;;;;;;;0.00;0.00;;;15.80;75.40;;;;;;4840976;29;20039;-75
2024/03/12 16:22:45;;;;;;;0.10;0.10;;;15.80;75.30;;;;;;4844127;29;20521;-76
2024/03/12 16:25:13;;;;;;;0.10;0.10;;;15.70;75.80;;;;;;4845289;29;20050;-76
2024/03/12 16:27:43;;;;;;;0.10;0.10;;;15.70;75.20;;;;;;4839826;29;20058;-75
2024/03/12 16:30:09;;;;;;;0.10;0.10;;;15.60;75.60;;;;;;4846342;29;20034;-76
2024/03/12 16:32:36;;;;;;;0.10;0.10;;;15.50;76.00;;;;;;4865062;29;20459;-76
2024/03/12 16:35:03;;;;;;;0.10;0.10;;;15.50;75.80;;;;;;4846868;29;20065;-76
2024/03/12 16:37:30;;;;;;;0.10;0.10;;;15.50;76.10;;;;;;4865227;29;20029;-76
2024/03/12 16:39:55;;;;;;;0.10;0.10;;;15.50;76.20;;;;;;4864928;29;20026;-75
2024/03/12 16:42:22;;;;;;;0.10;0.10;;;15.40;76.50;;;;;;4865280;29;20037;-76
2024/03/12 16:44:49;;;;;;;0.10;0.10;;;15.30;76.80;;;;;;4862573;29;20421;-75
2024/03/12 16:47:15;;;;;;;0.10;0.10;;;15.30;76.50;;;;;;4848389;29;20101;-76
2024/03/12 16:49:42;;;;;;;0.00;0.00;;;15.20;76.70;;;;;;4846514;29;20120;-75
2024/03/12 16:52:10;;;;;;;0.10;0.10;;;15.20;76.50;;;;;;4864652;29;20030;-76
2024/03/12 16:54:37;;;;;;;0.10;0.10;;;15.20;76.30;;;;;;4863789;29;20021;-75
2024/03/12 16:57:03;;;;;;;0.10;0.10;;;15.20;76.30;;;;;;4865129;29;20032;-76
2024/03/12 16:59:30;;;;;;;0.10;0.10;;;15.10;76.60;;;;;;4864342;29;20037;-76
2024/03/12 17:01:56;;;;;;;0.00;0.00;;;15.10;76.50;;;;;;4864019;29;20524;-76
2024/03/12 17:04:23;;;;;;;0.00;0.00;;;15.10;75.90;;;;;;4847926;29;20029;-76
2024/03/12 17:06:58;;;;;;;0.00;0.00;;;15.00;75.90;;;;;;4862490;29;20018;-76
2024/03/12 17:09:26;;;;;;;0.00;0.00;;;15.00;76.40;;;;;;4861756;29;20034;-75
2024/03/12 17:11:52;;;;;;;0.10;0.10;;;15.00;76.10;;;;;;4847505;29;20105;-75
2024/03/12 17:14:20;;;;;;;0.10;0.10;;;15.00;75.70;;;;;;4845009;29;20097;-76
2024/03/12 17:16:46;;;;;;;0.10;0.10;;;15.00;75.80;;;;;;4861556;29;20074;-76
2024/03/12 17:19:14;;;;;;;0.10;0.10;;;15.00;75.80;;;;;;4846093;29;20029;-76
2024/03/12 17:21:41;;;;;;;0.10;0.10;;;14.90;75.60;;;;;;4846912;29;20026;-76
2024/03/12 17:24:07;;;;;;;0.00;0.00;;;14.90;75.60;;;;;;4845853;29;20029;-76
2024/03/12 17:26:37;;;;;;;0.03;0.03;;;15.00;76.00;;;;;;4845897;29;20506;-79
2024/03/12 17:29:04;;;;;;;0.10;0.10;;;15.00;75.90;;;;;;4861843;29;20026;-78
2024/03/12 17:31:31;;;;;;;0.10;0.10;;;14.90;76.00;;;;;;4841200;29;20050;-77
2024/03/12 17:33:57;;;;;;;0.10;0.10;;;15.00;76.30;;;;;;4842807;29;20029;-77
2024/03/12 17:36:24;;;;;;;0.00;0.00;;;14.90;76.20;;;;;;4843991;29;20029;-77
2024/03/12 17:38:50;;;;;;;0.03;0.03;;;14.90;76.40;;;;;;4843126;29;20042;-77
2024/03/12 17:41:17;;;;;;;0.10;0.10;;;14.80;76.50;;;;;;4843722;29;20117;-77
2024/03/12 17:43:43;;;;;;;0.10;0.10;;;14.80;76.60;;;;;;4840157;29;20030;-76
2024/03/12 17:46:12;;;;;;;0.10;0.10;;;14.70;76.60;;;;;;4840807;29;20042;-76
2024/03/12 17:48:42;;;;;;;0.05;0.05;;;14.70;76.70;;;;;;4840736;29;20063;-76
2024/03/12 17:51:09;;;;;;;0.10;0.10;;;14.60;76.90;;;;;;4841610;29;20030;-76
2024/03/12 17:53:38;;;;;;;0.00;0.00;;;14.60;76.70;;;;;;4843742;29;20063;-76
2024/03/12 17:56:10;;;;;;;0.00;0.00;;;14.50;77.00;;;;;;4842437;29;20421;-76
2024/03/12 17:58:41;;;;;;;0.10;0.10;;;14.50;77.10;;;;;;4842670;29;20041;-76
2024/03/12 18:01:11;;;;;;;0.10;0.10;;;14.50;77.00;;;;;;4844353;29;20034;-74
2024/03/12 18:03:40;;;;;;;0.10;0.10;;;14.50;77.10;;;;;;4844425;29;20543;-75
2024/03/12 18:06:10;;;;;;;0.00;0.00;;;14.50;77.00;;;;;;4843741;29;20036;-76
2024/03/12 18:08:42;;;;;;;0.00;0.00;;;14.40;77.30;;;;;;4843537;29;20113;-75
2024/03/12 18:11:10;;;;;;;0.10;0.10;;;14.50;77.30;;;;;;4843527;29;20517;-75
2024/03/12 18:13:37;;;;;;;0.10;0.10;;;14.50;77.30;;;;;;4843224;29;20044;-75
2024/03/12 18:16:02;;;;;;;0.10;0.10;;;14.40;77.30;;;;;;4835362;29;20037;-73
2024/03/12 18:18:28;;;;;;;0.10;0.10;;;14.30;77.60;;;;;;4842820;29;20030;-73
2024/03/12 18:20:57;;;;;;;0.05;0.05;;;14.20;77.70;;;;;;4843574;29;20034;-75
2024/03/12 18:23:22;;;;;;;0.00;0.00;;;14.20;78.00;;;;;;4842923;29;20102;-75
2024/03/12 18:25:51;;;;;;;0.10;0.10;;;14.20;77.90;;;;;;4843340;29;20033;-75
2024/03/12 18:28:16;;;;;;;0.00;0.00;;;14.10;78.10;;;;;;4843618;29;20042;-77